Beauport, Canada
Current Conditions -  °F | °C
As of 6:00 AM on Friday 19 Dec 2014 (Local Time) from CYQB Reporting Station
Few Clouds Few Clouds  
Wind Chill: 21°   Ceiling: Unl
Heat Index: 21°   Visibility: 15mi
Dew Point: 12°   Wind: 3mph
Humidity: 68%   Direction: 310°NW
Pressure: 29.9"   Gusts: NA
Location:  46.86°N, 71.19°W
Report Text: CYQB 191100Z 31003KT 280V010 15SM FEW078 FEW240 M06/M11 A2990 RMK AC1CI1 AC TR CI TR SLP130
Loading
Personal Weather Stations






























Interactive Weather Map New forecast layout! Learn more

10-Day Weather Forecast

Advertisements
Track Severe Weather on mobile